Clarendon, New York
Current Conditions -  °F | °C
As of 10:54 AM on Saturday 22 Nov 2014 (Local Time) from KROC Reporting Station
Overcast Overcast  
Wind Chill: 25°   Ceiling: 4500
Heat Index: 35°   Visibility: 10mi
Dew Point: 10°   Wind: 16mph
Humidity: 35%   Direction: 210°SSW
Pressure: 30.12"   Gusts: 29mph
Location:  43.19°N, 78.06°W
Report Text: KROC 221554Z 21014G25KT 10SM FEW043 BKN045 BKN070 OVC140 02/M12 A3012 RMK AO2 SLP208 T00171122
Loading
Personal Weather Stations






























Interactive Weather Map New forecast layout! Learn more

10-Day Weather Forecast

Advertisements
Track Severe Weather on mobile